Time;durP1;ratioP1;P1;durP2;ratioP2;P2;SDS_P1;SDS_P2;PMS_P1;PMS_P2;Temp;Humidity;BMP_temperature;BMP_pressure;BME280_temperature;BME280_humidity;BME280_pressure;Samples;Min_cycle;Max_cycle;Signal;HPM_P1;HPM_P2
2024/01/07 00:02:16;;;;;;;7.87;7.00;;;;;;;;;;5071573;28;20203;-53
2024/01/07 00:04:42;;;;;;;8.77;6.37;;;;;;;;;;5071489;28;20457;-52
2024/01/07 00:07:08;;;;;;;8.37;6.57;;;;;;;;;;5071269;28;20938;-52
2024/01/07 00:09:34;;;;;;;7.47;6.67;;;;;;;;;;5071174;28;20211;-52
2024/01/07 00:12:00;;;;;;;8.10;6.60;;;;;;;;;;5071532;28;20263;-52
2024/01/07 00:14:26;;;;;;;7.70;6.27;;;;;;;;;;5071323;28;20556;-51
2024/01/07 00:16:53;;;;;;;8.03;6.43;;;;;;;;;;5071321;28;20441;-51
2024/01/07 00:19:19;;;;;;;8.27;6.87;;;;;;;;;;5071462;28;20230;-52
2024/01/07 00:21:45;;;;;;;8.10;6.33;;;;;;;;;;5071333;28;20438;-51
2024/01/07 00:24:11;;;;;;;7.00;6.23;;;;;;;;;;5071267;28;20207;-52
2024/01/07 00:26:37;;;;;;;7.10;6.40;;;;;;;;;;5071217;28;20700;-51
2024/01/07 00:29:03;;;;;;;7.53;6.70;;;;;;;;;;5071264;28;20429;-51
2024/01/07 00:31:29;;;;;;;8.97;6.90;;;;;;;;;;5071477;28;20540;-52
2024/01/07 00:33:57;;;;;;;8.57;6.90;;;;;;;;;;5071075;28;20540;-52
2024/01/07 00:36:22;;;;;;;7.30;6.43;;;;;;;;;;5071261;28;20433;-51
2024/01/07 00:38:48;;;;;;;7.77;6.50;;;;;;;;;;5071035;28;20482;-51
2024/01/07 00:41:14;;;;;;;9.53;5.97;;;;;;;;;;5071337;28;20188;-51
2024/01/07 00:43:41;;;;;;;8.00;6.70;;;;;;;;;;5070698;28;20457;-51
2024/01/07 00:46:07;;;;;;;8.60;6.93;;;;;;;;;;5071110;28;20290;-51
2024/01/07 00:48:33;;;;;;;7.93;7.10;;;;;;;;;;5071101;28;20422;-51
2024/01/07 00:51:00;;;;;;;9.10;6.50;;;;;;;;;;5071290;28;20425;-51
2024/01/07 00:53:26;;;;;;;6.87;6.13;;;;;;;;;;5071089;28;20491;-50
2024/01/07 00:55:52;;;;;;;7.47;6.47;;;;;;;;;;5071031;28;20438;-51
2024/01/07 00:58:18;;;;;;;8.17;6.50;;;;;;;;;;5070800;28;20235;-51
2024/01/07 01:00:44;;;;;;;6.80;6.10;;;;;;;;;;5071052;28;20278;-50
2024/01/07 01:03:10;;;;;;;7.00;6.30;;;;;;;;;;5072974;28;20534;-49
2024/01/07 01:05:36;;;;;;;6.37;5.60;;;;;;;;;;5074694;28;20253;-49
2024/01/07 01:08:04;;;;;;;7.27;6.00;;;;;;;;;;5074589;28;20274;-48
2024/01/07 01:10:30;;;;;;;7.17;5.93;;;;;;;;;;5074593;28;20228;-49
2024/01/07 01:12:56;;;;;;;7.87;6.10;;;;;;;;;;5074547;28;21000;-49
2024/01/07 01:15:22;;;;;;;7.73;6.50;;;;;;;;;;5074488;28;20509;-48
2024/01/07 01:17:47;;;;;;;7.50;6.20;;;;;;;;;;5074333;28;20714;-49
2024/01/07 01:20:14;;;;;;;8.13;6.20;;;;;;;;;;5074401;28;20326;-48
2024/01/07 01:22:40;;;;;;;8.87;6.80;;;;;;;;;;5074249;28;20202;-48
2024/01/07 01:25:07;;;;;;;7.87;6.23;;;;;;;;;;5074374;28;20437;-48
2024/01/07 01:27:33;;;;;;;6.90;5.73;;;;;;;;;;5074323;28;20227;-48
2024/01/07 01:29:59;;;;;;;8.63;6.43;;;;;;;;;;5074255;28;20853;-49
2024/01/07 01:32:25;;;;;;;8.43;5.97;;;;;;;;;;5074200;28;20200;-47
2024/01/07 01:34:51;;;;;;;8.37;6.20;;;;;;;;;;5074152;28;20227;-46
2024/01/07 01:37:17;;;;;;;7.83;5.90;;;;;;;;;;5074186;28;20551;-47
2024/01/07 01:39:43;;;;;;;8.77;6.50;;;;;;;;;;5074038;28;20227;-47
2024/01/07 01:42:10;;;;;;;7.20;6.30;;;;;;;;;;5074192;28;20289;-47
2024/01/07 01:44:36;;;;;;;7.37;5.67;;;;;;;;;;5073985;28;20333;-48
2024/01/07 01:47:02;;;;;;;6.90;5.33;;;;;;;;;;5073938;28;20803;-47
2024/01/07 01:49:28;;;;;;;6.63;5.70;;;;;;;;;;5073964;28;20433;-47
2024/01/07 01:51:55;;;;;;;7.70;6.00;;;;;;;;;;5073689;28;20445;-47
2024/01/07 01:54:21;;;;;;;6.60;5.90;;;;;;;;;;5073759;28;20478;-47
2024/01/07 01:56:48;;;;;;;7.47;6.03;;;;;;;;;;5073724;28;20520;-47
2024/01/07 01:59:16;;;;;;;8.20;6.33;;;;;;;;;;5073669;28;20484;-47
2024/01/07 02:01:43;;;;;;;6.67;6.00;;;;;;;;;;5073533;28;20442;-47
2024/01/07 02:04:09;;;;;;;7.73;6.00;;;;;;;;;;5073724;28;20438;-47
2024/01/07 02:06:35;;;;;;;7.73;5.97;;;;;;;;;;5073595;28;20430;-47
2024/01/07 02:09:02;;;;;;;7.93;6.00;;;;;;;;;;5073608;28;20894;-47
2024/01/07 02:11:28;;;;;;;6.70;5.47;;;;;;;;;;5072707;28;20477;-47
2024/01/07 02:13:54;;;;;;;6.10;5.40;;;;;;;;;;5073340;28;20493;-47
2024/01/07 02:16:21;;;;;;;6.63;6.03;;;;;;;;;;5073291;28;20469;-48
2024/01/07 02:18:47;;;;;;;7.57;5.40;;;;;;;;;;5073141;28;20208;-48
2024/01/07 02:21:13;;;;;;;6.83;5.50;;;;;;;;;;5073297;28;20793;-47
2024/01/07 02:23:40;;;;;;;6.77;5.37;;;;;;;;;;5073174;28;20191;-47
2024/01/07 02:26:07;;;;;;;5.70;5.10;;;;;;;;;;5073099;28;20694;-47
2024/01/07 02:28:33;;;;;;;6.73;5.40;;;;;;;;;;5073147;28;20446;-47
2024/01/07 02:30:59;;;;;;;6.57;5.03;;;;;;;;;;5073131;28;20441;-47
2024/01/07 02:33:25;;;;;;;6.20;4.93;;;;;;;;;;5073014;28;20536;-47
2024/01/07 02:35:51;;;;;;;7.50;4.80;;;;;;;;;;5072829;28;20525;-47
2024/01/07 02:38:17;;;;;;;7.47;5.17;;;;;;;;;;5072988;28;20441;-47
2024/01/07 02:40:43;;;;;;;5.57;5.03;;;;;;;;;;5072860;28;20474;-47
2024/01/07 02:43:10;;;;;;;6.27;4.97;;;;;;;;;;5072906;28;20556;-47
2024/01/07 02:45:36;;;;;;;6.43;5.07;;;;;;;;;;5072712;28;20208;-47
2024/01/07 02:48:03;;;;;;;5.30;4.73;;;;;;;;;;5072677;28;20803;-47
2024/01/07 02:50:29;;;;;;;6.07;5.20;;;;;;;;;;5072754;28;20491;-47
2024/01/07 02:52:54;;;;;;;6.07;4.70;;;;;;;;;;5072499;28;20803;-47
2024/01/07 02:55:20;;;;;;;6.30;4.90;;;;;;;;;;5072616;28;20200;-48
2024/01/07 02:57:47;;;;;;;6.13;4.47;;;;;;;;;;5072484;28;20260;-47
2024/01/07 03:00:14;;;;;;;5.63;4.33;;;;;;;;;;5072517;28;20577;-47
2024/01/07 03:02:40;;;;;;;7.03;4.97;;;;;;;;;;5058582;28;20444;-47
2024/01/07 03:05:07;;;;;;;6.23;5.00;;;;;;;;;;5060230;28;20879;-47
2024/01/07 03:07:33;;;;;;;6.67;4.83;;;;;;;;;;5060401;28;20206;-48
2024/01/07 03:09:59;;;;;;;6.80;4.27;;;;;;;;;;5060141;28;20442;-48
2024/01/07 03:12:25;;;;;;;5.80;5.10;;;;;;;;;;5061998;28;20192;-48
2024/01/07 03:14:51;;;;;;;5.87;4.90;;;;;;;;;;5060058;28;20307;-47
2024/01/07 03:17:18;;;;;;;6.63;4.93;;;;;;;;;;5058600;28;20525;-47
2024/01/07 03:19:44;;;;;;;5.80;4.40;;;;;;;;;;5060211;28;20223;-47
2024/01/07 03:22:10;;;;;;;5.63;4.37;;;;;;;;;;5060174;28;20445;-47
2024/01/07 03:24:36;;;;;;;4.60;4.10;;;;;;;;;;5058526;28;20226;-48
2024/01/07 03:27:02;;;;;;;5.00;4.30;;;;;;;;;;5063489;28;20614;-47
2024/01/07 03:29:28;;;;;;;4.40;4.00;;;;;;;;;;5058347;28;20192;-47
2024/01/07 03:31:54;;;;;;;6.43;4.03;;;;;;;;;;5059961;28;20496;-47
2024/01/07 03:34:21;;;;;;;7.03;4.07;;;;;;;;;;5059915;28;20295;-47
2024/01/07 03:36:47;;;;;;;5.83;4.20;;;;;;;;;;5059876;28;20203;-47
2024/01/07 03:39:13;;;;;;;6.37;4.37;;;;;;;;;;5060017;28;20837;-47
2024/01/07 03:41:39;;;;;;;7.00;4.00;;;;;;;;;;5061724;28;20230;-47
2024/01/07 03:44:05;;;;;;;5.57;4.17;;;;;;;;;;5060045;28;20199;-48
2024/01/07 03:46:31;;;;;;;5.87;3.93;;;;;;;;;;5060025;28;20685;-47
2024/01/07 03:48:57;;;;;;;5.63;4.03;;;;;;;;;;5058012;28;20191;-47
2024/01/07 03:51:24;;;;;;;4.37;3.97;;;;;;;;;;5059879;28;20203;-48
2024/01/07 03:53:50;;;;;;;4.73;4.17;;;;;;;;;;5059660;28;20928;-47
2024/01/07 03:56:16;;;;;;;5.87;3.67;;;;;;;;;;5058072;28;20428;-48
2024/01/07 03:58:42;;;;;;;4.77;4.00;;;;;;;;;;5059696;28;20750;-48
2024/01/07 04:01:08;;;;;;;5.30;3.97;;;;;;;;;;5061576;28;20208;-47
2024/01/07 04:03:34;;;;;;;5.23;3.73;;;;;;;;;;5057848;28;20199;-48
2024/01/07 04:06:00;;;;;;;4.63;3.60;;;;;;;;;;5061530;28;20199;-47
2024/01/07 04:08:28;;;;;;;5.60;3.43;;;;;;;;;;5058031;28;20207;-47
2024/01/07 04:10:54;;;;;;;4.27;3.50;;;;;;;;;;5059421;28;20492;-47
2024/01/07 04:13:20;;;;;;;3.83;3.30;;;;;;;;;;5057837;28;20877;-47
2024/01/07 04:15:46;;;;;;;5.00;3.67;;;;;;;;;;5059621;28;20199;-48
2024/01/07 04:18:12;;;;;;;6.60;3.80;;;;;;;;;;5059582;28;20462;-48
2024/01/07 04:20:38;;;;;;;3.37;3.00;;;;;;;;;;5057746;28;20245;-47
2024/01/07 04:23:04;;;;;;;3.70;3.00;;;;;;;;;;5057774;28;20196;-47
2024/01/07 04:25:31;;;;;;;3.60;3.30;;;;;;;;;;5057775;28;20670;-47
2024/01/07 04:27:58;;;;;;;4.27;3.13;;;;;;;;;;5059438;28;20452;-47
2024/01/07 04:30:24;;;;;;;6.17;3.30;;;;;;;;;;5057664;28;20445;-47
2024/01/07 04:32:50;;;;;;;4.30;3.20;;;;;;;;;;5059290;28;20513;-47
2024/01/07 04:35:16;;;;;;;3.53;3.23;;;;;;;;;;5059214;28;20199;-47
2024/01/07 04:37:42;;;;;;;3.73;3.33;;;;;;;;;;5061618;28;20601;-47
2024/01/07 04:40:08;;;;;;;4.47;3.00;;;;;;;;;;5063031;28;20231;-47
2024/01/07 04:42:36;;;;;;;5.07;3.50;;;;;;;;;;5063049;28;20425;-47
2024/01/07 04:45:02;;;;;;;4.30;3.20;;;;;;;;;;5061245;28;20450;-47
2024/01/07 04:47:28;;;;;;;4.03;3.40;;;;;;;;;;5063090;28;20457;-47
2024/01/07 04:49:54;;;;;;;4.03;2.90;;;;;;;;;;5064663;28;20837;-47
2024/01/07 04:52:21;;;;;;;5.27;2.90;;;;;;;;;;5061254;28;20555;-47
2024/01/07 04:54:47;;;;;;;4.27;3.47;;;;;;;;;;5061189;28;20442;-48
2024/01/07 04:57:13;;;;;;;4.10;2.70;;;;;;;;;;5063209;28;20924;-47
2024/01/07 04:59:41;;;;;;;3.03;2.73;;;;;;;;;;5060940;28;20318;-47
2024/01/07 05:02:06;;;;;;;6.80;3.30;;;;;;;;;;5059355;28;20210;-47
2024/01/07 05:04:32;;;;;;;3.60;3.30;;;;;;;;;;5062929;28;20819;-47
2024/01/07 05:06:58;;;;;;;4.57;2.97;;;;;;;;;;5060839;28;20196;-47
2024/01/07 05:09:24;;;;;;;4.07;3.23;;;;;;;;;;5062635;28;20790;-47
2024/01/07 05:11:50;;;;;;;5.43;3.23;;;;;;;;;;5060581;28;20274;-47
2024/01/07 05:14:16;;;;;;;3.73;3.20;;;;;;;;;;5061014;28;20541;-47
2024/01/07 05:16:44;;;;;;;3.10;2.80;;;;;;;;;;5062525;28;20211;-47
2024/01/07 05:19:10;;;;;;;4.10;3.00;;;;;;;;;;5061251;28;20215;-47
2024/01/07 05:21:36;;;;;;;3.43;3.13;;;;;;;;;;5062461;28;20426;-47
2024/01/07 05:24:02;;;;;;;4.07;2.80;;;;;;;;;;5060608;28;20616;-48
2024/01/07 05:26:28;;;;;;;4.97;3.43;;;;;;;;;;5060803;28;20426;-47
2024/01/07 05:28:54;;;;;;;3.27;2.70;;;;;;;;;;5062164;28;20218;-47
2024/01/07 05:31:20;;;;;;;3.23;3.00;;;;;;;;;;5060760;28;20946;-47
2024/01/07 05:33:47;;;;;;;4.13;3.17;;;;;;;;;;5060602;28;20244;-47
2024/01/07 05:36:13;;;;;;;3.27;2.90;;;;;;;;;;5060457;28;20238;-47
2024/01/07 05:38:39;;;;;;;3.63;3.00;;;;;;;;;;5061912;28;20495;-47
2024/01/07 05:41:05;;;;;;;4.70;3.10;;;;;;;;;;5059421;28;20450;-47
2024/01/07 05:43:31;;;;;;;3.53;2.83;;;;;;;;;;5060361;28;20206;-47
2024/01/07 05:45:57;;;;;;;3.37;2.93;;;;;;;;;;5059725;28;20191;-47
2024/01/07 05:48:23;;;;;;;5.50;3.33;;;;;;;;;;5061242;28;20199;-47
2024/01/07 05:50:51;;;;;;;2.83;2.53;;;;;;;;;;5061754;28;20449;-48
2024/01/07 05:53:17;;;;;;;3.03;2.63;;;;;;;;;;5060483;28;20210;-47
2024/01/07 05:55:43;;;;;;;3.33;3.00;;;;;;;;;;5060112;28;20495;-47
2024/01/07 05:58:09;;;;;;;3.50;2.73;;;;;;;;;;5059813;28;20449;-47
2024/01/07 06:00:35;;;;;;;2.90;2.40;;;;;;;;;;5059901;28;20313;-47
2024/01/07 06:03:01;;;;;;;3.37;2.70;;;;;;;;;;5061723;28;20525;-47
2024/01/07 06:05:27;;;;;;;3.80;2.70;;;;;;;;;;5059634;28;20195;-48
2024/01/07 06:07:55;;;;;;;3.83;2.90;;;;;;;;;;5061420;28;20240;-48
2024/01/07 06:10:21;;;;;;;3.00;2.43;;;;;;;;;;5061593;28;20228;-47
2024/01/07 06:12:47;;;;;;;4.30;2.57;;;;;;;;;;5059732;28;20452;-47
2024/01/07 06:15:13;;;;;;;6.07;3.23;;;;;;;;;;5059683;28;20924;-48
2024/01/07 06:17:39;;;;;;;5.23;2.60;;;;;;;;;;5059580;28;20450;-48
2024/01/07 06:20:05;;;;;;;3.53;2.50;;;;;;;;;;5059432;28;20560;-48
2024/01/07 06:22:31;;;;;;;2.90;2.60;;;;;;;;;;5059599;28;20200;-47
2024/01/07 06:24:59;;;;;;;3.10;2.60;;;;;;;;;;5059422;28;20434;-47
2024/01/07 06:27:25;;;;;;;2.60;2.40;;;;;;;;;;5059471;28;21252;-47
2024/01/07 06:29:51;;;;;;;2.90;2.60;;;;;;;;;;5060928;28;20529;-47
2024/01/07 06:32:17;;;;;;;3.30;2.67;;;;;;;;;;5059264;28;20199;-47
2024/01/07 06:34:43;;;;;;;2.70;2.50;;;;;;;;;;5059538;28;20444;-48
2024/01/07 06:37:10;;;;;;;3.10;2.73;;;;;;;;;;5060898;28;20237;-47
2024/01/07 06:39:36;;;;;;;3.33;2.50;;;;;;;;;;5059101;28;20257;-47
2024/01/07 06:42:03;;;;;;;4.07;3.00;;;;;;;;;;5059124;28;20473;-47
2024/01/07 06:44:29;;;;;;;2.87;2.50;;;;;;;;;;5059186;28;20203;-47
2024/01/07 06:46:55;;;;;;;3.37;2.87;;;;;;;;;;5058950;28;20951;-47
2024/01/07 06:49:21;;;;;;;4.70;2.60;;;;;;;;;;5059158;28;20199;-48
2024/01/07 06:51:47;;;;;;;4.20;2.73;;;;;;;;;;5060122;28;20689;-48
2024/01/07 06:54:13;;;;;;;3.00;2.70;;;;;;;;;;5060758;28;20449;-47
2024/01/07 06:56:39;;;;;;;3.10;2.80;;;;;;;;;;5058803;28;20430;-47
2024/01/07 06:59:07;;;;;;;3.13;2.83;;;;;;;;;;5056635;28;20227;-47
2024/01/07 07:01:33;;;;;;;4.63;3.07;;;;;;;;;;5060474;28;20208;-47
2024/01/07 07:04:00;;;;;;;2.87;2.60;;;;;;;;;;5059183;28;20449;-47
2024/01/07 07:06:26;;;;;;;3.97;2.70;;;;;;;;;;5058704;28;20227;-47
2024/01/07 07:08:52;;;;;;;3.23;2.77;;;;;;;;;;5058670;28;20437;-47
2024/01/07 07:11:19;;;;;;;2.60;2.40;;;;;;;;;;5058268;28;20473;-47
2024/01/07 07:13:45;;;;;;;2.50;2.33;;;;;;;;;;5056849;28;20195;-47
2024/01/07 07:16:12;;;;;;;3.30;3.00;;;;;;;;;;5060272;28;20828;-47
2024/01/07 07:18:38;;;;;;;4.10;2.93;;;;;;;;;;5065423;28;20249;-47
2024/01/07 07:21:04;;;;;;;2.90;2.50;;;;;;;;;;5071856;28;20482;-47
2024/01/07 07:23:30;;;;;;;2.67;2.47;;;;;;;;;;5072198;28;20203;-48
2024/01/07 07:25:56;;;;;;;3.73;2.80;;;;;;;;;;5071871;28;20442;-47
2024/01/07 07:28:23;;;;;;;3.70;2.93;;;;;;;;;;5071776;28;20790;-47
2024/01/07 07:30:49;;;;;;;3.40;3.00;;;;;;;;;;5071811;28;20434;-47
2024/01/07 07:33:16;;;;;;;3.07;2.60;;;;;;;;;;5071798;28;20434;-49
2024/01/07 07:35:42;;;;;;;4.90;2.90;;;;;;;;;;5071994;28;20454;-47
2024/01/07 07:38:08;;;;;;;3.20;2.90;;;;;;;;;;5071678;28;20453;-47
2024/01/07 07:40:34;;;;;;;2.70;2.50;;;;;;;;;;5071289;28;21003;-47
2024/01/07 07:43:00;;;;;;;3.03;2.50;;;;;;;;;;5071587;28;20426;-47
2024/01/07 07:45:26;;;;;;;3.50;3.07;;;;;;;;;;5071813;28;20226;-47
2024/01/07 07:47:52;;;;;;;5.47;2.77;;;;;;;;;;5071647;28;20456;-47
2024/01/07 07:50:21;;;;;;;5.17;3.30;;;;;;;;;;5071436;28;20446;-48
2024/01/07 07:52:47;;;;;;;3.27;2.40;;;;;;;;;;5071557;28;20225;-47
2024/01/07 07:55:13;;;;;;;3.23;2.93;;;;;;;;;;5071482;28;20947;-47
2024/01/07 07:57:39;;;;;;;3.73;2.80;;;;;;;;;;5071417;28;20207;-47
2024/01/07 08:00:06;;;;;;;2.93;2.73;;;;;;;;;;5070991;28;20238;-47
2024/01/07 08:02:32;;;;;;;3.97;2.57;;;;;;;;;;5071532;28;20222;-47
2024/01/07 08:04:58;;;;;;;3.50;2.83;;;;;;;;;;5070696;28;20441;-48
2024/01/07 08:07:25;;;;;;;3.60;2.67;;;;;;;;;;5070455;28;20438;-48
2024/01/07 08:09:53;;;;;;;3.77;2.80;;;;;;;;;;5071026;28;20603;-48
2024/01/07 08:12:19;;;;;;;2.73;2.50;;;;;;;;;;5075313;28;20939;-47
2024/01/07 08:14:45;;;;;;;4.07;2.50;;;;;;;;;;5075536;28;20936;-48
2024/01/07 08:17:11;;;;;;;3.77;2.53;;;;;;;;;;5075252;28;20310;-47
2024/01/07 08:19:37;;;;;;;4.40;2.40;;;;;;;;;;5075342;28;20293;-48
2024/01/07 08:22:04;;;;;;;3.07;2.60;;;;;;;;;;5075151;28;20238;-48
2024/01/07 08:24:31;;;;;;;3.10;2.40;;;;;;;;;;5075435;28;20459;-48
2024/01/07 08:26:57;;;;;;;3.10;2.70;;;;;;;;;;5075133;28;20970;-48
2024/01/07 08:29:23;;;;;;;3.00;2.70;;;;;;;;;;5075042;28;20841;-47
2024/01/07 08:31:49;;;;;;;2.63;2.30;;;;;;;;;;5075051;28;20455;-49
2024/01/07 08:34:15;;;;;;;4.03;2.93;;;;;;;;;;5074956;28;20446;-49
2024/01/07 08:36:41;;;;;;;2.50;2.30;;;;;;;;;;5075013;28;20426;-48
2024/01/07 08:39:08;;;;;;;5.07;2.93;;;;;;;;;;5074973;28;20479;-49
2024/01/07 08:41:35;;;;;;;3.30;2.67;;;;;;;;;;5074959;28;20291;-49
2024/01/07 08:44:01;;;;;;;2.70;2.40;;;;;;;;;;5075003;28;20445;-48
2024/01/07 08:46:27;;;;;;;2.87;2.27;;;;;;;;;;5075119;28;20471;-48
2024/01/07 08:48:53;;;;;;;3.20;2.60;;;;;;;;;;5074802;28;20196;-48
2024/01/07 08:51:19;;;;;;;2.73;2.53;;;;;;;;;;5075007;28;20457;-47
2024/01/07 08:53:45;;;;;;;3.73;2.60;;;;;;;;;;5074971;28;20204;-48
2024/01/07 08:56:12;;;;;;;4.33;2.70;;;;;;;;;;5072720;28;20676;-49
2024/01/07 08:58:40;;;;;;;4.83;2.93;;;;;;;;;;5074320;28;20283;-49
2024/01/07 09:01:06;;;;;;;3.07;2.77;;;;;;;;;;5074091;28;20477;-49
2024/01/07 09:03:32;;;;;;;3.47;2.53;;;;;;;;;;5074339;28;20475;-49
2024/01/07 09:05:58;;;;;;;4.43;2.93;;;;;;;;;;5074598;28;20207;-49
2024/01/07 09:08:24;;;;;;;3.13;2.50;;;;;;;;;;5074141;28;20610;-49
2024/01/07 09:10:50;;;;;;;4.13;2.80;;;;;;;;;;5073962;28;20497;-49
2024/01/07 09:13:16;;;;;;;3.37;2.73;;;;;;;;;;5073873;28;20606;-49
2024/01/07 09:15:43;;;;;;;3.27;2.97;;;;;;;;;;5074278;28;20196;-49
2024/01/07 09:18:09;;;;;;;3.37;2.83;;;;;;;;;;5073780;28;20219;-48
2024/01/07 09:20:35;;;;;;;3.40;2.87;;;;;;;;;;5073791;28;20484;-48
2024/01/07 09:23:01;;;;;;;3.10;2.80;;;;;;;;;;5074020;28;20664;-48
2024/01/07 09:25:27;;;;;;;5.13;3.90;;;;;;;;;;5073973;28;20215;-49
2024/01/07 09:27:53;;;;;;;6.50;4.13;;;;;;;;;;5073810;28;20430;-49
2024/01/07 09:30:19;;;;;;;5.03;3.30;;;;;;;;;;5073673;28;20472;-49
2024/01/07 09:32:47;;;;;;;4.67;2.70;;;;;;;;;;5065312;28;20556;-49
2024/01/07 09:35:13;;;;;;;3.37;2.80;;;;;;;;;;5065198;28;20430;-49
2024/01/07 09:37:39;;;;;;;2.70;2.50;;;;;;;;;;5073526;28;20448;-49
2024/01/07 09:40:06;;;;;;;3.87;3.27;;;;;;;;;;5073479;28;20231;-49
2024/01/07 09:42:32;;;;;;;4.40;3.43;;;;;;;;;;5073613;28;20230;-49
2024/01/07 09:45:00;;;;;;;4.17;3.60;;;;;;;;;;5073608;28;20509;-49
2024/01/07 09:47:26;;;;;;;4.60;3.57;;;;;;;;;;5073393;28;20443;-49
2024/01/07 09:49:54;;;;;;;4.63;4.23;;;;;;;;;;5073506;28;20430;-49
2024/01/07 09:52:21;;;;;;;4.33;3.30;;;;;;;;;;5073275;28;20208;-49
2024/01/07 09:54:50;;;;;;;4.67;3.30;;;;;;;;;;5073298;28;20988;-49
2024/01/07 09:57:16;;;;;;;4.87;3.20;;;;;;;;;;5068173;28;20460;-49
2024/01/07 09:59:42;;;;;;;5.20;3.47;;;;;;;;;;5059744;28;20568;-49
2024/01/07 10:02:09;;;;;;;3.23;2.93;;;;;;;;;;5059495;28;20487;-49
2024/01/07 10:04:35;;;;;;;4.63;4.23;;;;;;;;;;5059646;28;20445;-48
2024/01/07 10:07:03;;;;;;;4.07;3.60;;;;;;;;;;5059634;28;20448;-49
2024/01/07 10:09:30;;;;;;;5.50;3.50;;;;;;;;;;5059554;28;20848;-49
2024/01/07 10:11:56;;;;;;;4.30;3.27;;;;;;;;;;5059366;28;20516;-48
2024/01/07 10:14:22;;;;;;;4.80;3.23;;;;;;;;;;5059121;28;20430;-49
2024/01/07 10:16:49;;;;;;;3.27;2.93;;;;;;;;;;5059190;28;20450;-49
2024/01/07 10:19:20;;;;;;;3.20;2.90;;;;;;;;;;5059248;28;20526;-48
2024/01/07 10:21:46;;;;;;;4.67;2.97;;;;;;;;;;5059180;28;20434;-49
2024/01/07 10:24:14;;;;;;;5.27;3.83;;;;;;;;;;5059233;28;20442;-49
2024/01/07 10:26:40;;;;;;;6.63;4.70;;;;;;;;;;5059479;28;21151;-49
2024/01/07 10:29:08;;;;;;;5.00;3.90;;;;;;;;;;5058789;28;20419;-49
2024/01/07 10:31:34;;;;;;;4.43;3.47;;;;;;;;;;5059057;28;20437;-49
2024/01/07 10:34:00;;;;;;;4.57;3.67;;;;;;;;;;5060097;28;20446;-49
2024/01/07 10:36:26;;;;;;;4.23;3.53;;;;;;;;;;5058981;28;20441;-49
2024/01/07 10:38:52;;;;;;;3.50;3.17;;;;;;;;;;5060666;28;20911;-49
2024/01/07 10:41:20;;;;;;;4.37;3.67;;;;;;;;;;5060315;28;20486;-49
2024/01/07 10:43:47;;;;;;;5.30;3.53;;;;;;;;;;5058896;28;20434;-49
2024/01/07 10:46:14;;;;;;;3.97;3.53;;;;;;;;;;5058660;28;20441;-49
2024/01/07 10:48:44;;;;;;;8.60;3.83;;;;;;;;;;5060204;28;20491;-48
2024/01/07 10:51:10;;;;;;;4.70;3.20;;;;;;;;;;5058832;28;20445;-49
2024/01/07 10:53:38;;;;;;;5.43;3.67;;;;;;;;;;5060682;28;20812;-49
2024/01/07 10:56:04;;;;;;;4.00;3.60;;;;;;;;;;5058759;28;20442;-49
2024/01/07 10:58:35;;;;;;;5.43;3.30;;;;;;;;;;5058829;28;20469;-49
2024/01/07 11:01:03;;;;;;;2.97;2.67;;;;;;;;;;5058461;28;20469;-49
2024/01/07 11:03:33;;;;;;;5.03;3.80;;;;;;;;;;5058264;28;20792;-48
2024/01/07 11:06:02;;;;;;;4.20;3.10;;;;;;;;;;5058643;28;20430;-48
2024/01/07 11:08:32;;;;;;;4.50;3.00;;;;;;;;;;5060220;28;20480;-49
2024/01/07 11:11:04;;;;;;;4.40;3.13;;;;;;;;;;5058450;28;20474;-48
2024/01/07 11:13:34;;;;;;;4.07;3.10;;;;;;;;;;5063639;28;20456;-48
2024/01/07 11:16:00;;;;;;;3.90;3.50;;;;;;;;;;5072080;28;20442;-49
2024/01/07 11:18:31;;;;;;;3.10;2.80;;;;;;;;;;5071841;28;20840;-49
2024/01/07 11:21:00;;;;;;;5.30;2.97;;;;;;;;;;5071908;28;20485;-48
2024/01/07 11:23:30;;;;;;;4.00;3.60;;;;;;;;;;5071853;28;20503;-48
2024/01/07 11:25:57;;;;;;;4.20;2.97;;;;;;;;;;5071819;28;20434;-48
2024/01/07 11:28:38;;;;;;;3.77;3.07;;;;;;;;;;5071712;28;20467;-48
2024/01/07 11:31:05;;;;;;;4.77;3.00;;;;;;;;;;5071898;28;20426;-48
2024/01/07 11:33:32;;;;;;;3.40;3.10;;;;;;;;;;5071920;28;20438;-49
2024/01/07 11:36:01;;;;;;;3.33;2.67;;;;;;;;;;5071443;28;20491;-48
2024/01/07 11:38:27;;;;;;;3.23;2.70;;;;;;;;;;5071331;28;20940;-48
2024/01/07 11:40:53;;;;;;;4.50;3.20;;;;;;;;;;5071496;28;20477;-56
2024/01/07 11:43:19;;;;;;;2.80;2.50;;;;;;;;;;5071398;28;20298;-49
2024/01/07 11:45:46;;;;;;;2.93;2.60;;;;;;;;;;5070774;28;20434;-49
2024/01/07 11:48:14;;;;;;;37.40;26.97;;;;;;;;;;5071711;28;20426;-49
2024/01/07 11:50:40;;;;;;;8.03;5.90;;;;;;;;;;5071525;28;20440;-48
2024/01/07 11:53:06;;;;;;;8.57;5.87;;;;;;;;;;5071483;28;20839;-48
2024/01/07 11:55:34;;;;;;;19.30;14.57;;;;;;;;;;5071497;28;20275;-49
2024/01/07 11:58:02;;;;;;;6.03;5.43;;;;;;;;;;5071435;28;20878;-49
2024/01/07 12:00:28;;;;;;;3.27;2.97;;;;;;;;;;5071386;28;20500;-49
2024/01/07 12:02:54;;;;;;;11.00;9.90;;;;;;;;;;5071425;28;20434;-49
2024/01/07 12:05:21;;;;;;;5.17;3.83;;;;;;;;;;5071258;28;20761;-49
2024/01/07 12:07:47;;;;;;;6.77;5.83;;;;;;;;;;5071554;28;20485;-49
2024/01/07 12:10:13;;;;;;;4.80;4.00;;;;;;;;;;5071184;28;20846;-49
2024/01/07 12:12:40;;;;;;;4.50;2.93;;;;;;;;;;5071366;28;20430;-49
2024/01/07 12:15:07;;;;;;;7.20;6.60;;;;;;;;;;5071314;28;20438;-49
2024/01/07 12:17:33;;;;;;;43.57;35.47;;;;;;;;;;5071168;28;20446;-48
2024/01/07 12:19:59;;;;;;;31.07;21.63;;;;;;;;;;5071365;28;20478;-49
2024/01/07 12:22:28;;;;;;;55.23;47.03;;;;;;;;;;5071108;28;20461;-49
2024/01/07 12:25:00;;;;;;;12.47;11.27;;;;;;;;;;5071182;28;20442;-49
2024/01/07 12:27:26;;;;;;;17.70;16.07;;;;;;;;;;5071198;28;20429;-50
2024/01/07 12:29:55;;;;;;;13.60;12.23;;;;;;;;;;5071201;28;20444;-50
2024/01/07 12:32:21;;;;;;;11.17;10.07;;;;;;;;;;5071306;28;20457;-50
2024/01/07 12:34:48;;;;;;;19.93;17.93;;;;;;;;;;5071188;28;20481;-49
2024/01/07 12:37:14;;;;;;;16.50;14.83;;;;;;;;;;5071048;28;20198;-49
2024/01/07 12:39:42;;;;;;;7.53;4.97;;;;;;;;;;5071024;28;20553;-50
2024/01/07 12:42:08;;;;;;;4.33;3.47;;;;;;;;;;5071081;28;20442;-50
2024/01/07 12:44:34;;;;;;;3.73;2.93;;;;;;;;;;5064114;28;20441;-50
2024/01/07 12:47:02;;;;;;;3.60;2.77;;;;;;;;;;5057386;28;20753;-50
2024/01/07 12:49:28;;;;;;;4.37;3.30;;;;;;;;;;5057386;28;20203;-49
2024/01/07 12:51:54;;;;;;;4.00;3.17;;;;;;;;;;5057469;28;20430;-49
2024/01/07 12:54:20;;;;;;;3.20;2.57;;;;;;;;;;5057460;28;20203;-49
2024/01/07 12:56:48;;;;;;;3.00;2.50;;;;;;;;;;5059179;28;20440;-49
2024/01/07 12:59:14;;;;;;;2.77;2.57;;;;;;;;;;5062810;28;20458;-49
2024/01/07 13:01:40;;;;;;;3.17;2.57;;;;;;;;;;5064114;28;20481;-47
2024/01/07 13:04:06;;;;;;;5.03;2.83;;;;;;;;;;5062567;28;20203;-47
2024/01/07 13:06:32;;;;;;;3.73;2.77;;;;;;;;;;5064204;28;20195;-47
2024/01/07 13:08:58;;;;;;;4.03;2.70;;;;;;;;;;5064311;28;20450;-47
2024/01/07 13:11:24;;;;;;;4.40;3.00;;;;;;;;;;5062202;28;20705;-49
2024/01/07 13:13:52;;;;;;;4.30;3.17;;;;;;;;;;5064031;28;20440;-49
2024/01/07 13:16:18;;;;;;;4.10;3.53;;;;;;;;;;5062221;28;20528;-49
2024/01/07 13:18:44;;;;;;;4.10;3.70;;;;;;;;;;5062487;28;20426;-49
2024/01/07 13:21:10;;;;;;;3.57;3.27;;;;;;;;;;5062454;28;20481;-49
2024/01/07 13:23:37;;;;;;;4.07;3.70;;;;;;;;;;5065455;28;20287;-48
2024/01/07 13:26:05;;;;;;;5.87;4.17;;;;;;;;;;5063859;28;20777;-49
2024/01/07 13:28:31;;;;;;;4.67;3.50;;;;;;;;;;5060212;28;20460;-49
2024/01/07 13:30:59;;;;;;;8.63;7.83;;;;;;;;;;5062272;28;20988;-49
2024/01/07 13:33:25;;;;;;;5.30;3.80;;;;;;;;;;5065723;28;20230;-48
2024/01/07 13:35:51;;;;;;;7.07;6.37;;;;;;;;;;5061455;28;20453;-48
2024/01/07 13:38:17;;;;;;;4.50;3.90;;;;;;;;;;5063771;28;20192;-48
2024/01/07 13:40:43;;;;;;;5.73;5.10;;;;;;;;;;5062030;28;20591;-48
2024/01/07 13:43:09;;;;;;;8.77;6.73;;;;;;;;;;5061967;28;20234;-48
2024/01/07 13:45:35;;;;;;;6.23;5.63;;;;;;;;;;5061906;28;20218;-48
2024/01/07 13:48:03;;;;;;;7.53;6.83;;;;;;;;;;5062188;28;20928;-48
2024/01/07 13:50:29;;;;;;;5.90;5.20;;;;;;;;;;5061860;28;20652;-48
2024/01/07 13:52:58;;;;;;;4.50;4.10;;;;;;;;;;5065234;28;20529;-48
2024/01/07 13:55:26;;;;;;;7.70;5.07;;;;;;;;;;5061851;28;20202;-49
2024/01/07 13:57:52;;;;;;;6.43;4.00;;;;;;;;;;5061821;28;20438;-48
2024/01/07 14:00:18;;;;;;;6.60;3.63;;;;;;;;;;5063142;28;20473;-49
2024/01/07 14:02:48;;;;;;;8.03;6.10;;;;;;;;;;5061636;28;20206;-49
2024/01/07 14:05:16;;;;;;;7.23;4.10;;;;;;;;;;5063158;28;20434;-49
2024/01/07 14:07:42;;;;;;;9.17;5.40;;;;;;;;;;5062252;28;20430;-49
2024/01/07 14:10:08;;;;;;;8.33;6.20;;;;;;;;;;5061072;28;20462;-49
2024/01/07 14:12:34;;;;;;;10.00;6.10;;;;;;;;;;5061009;28;20916;-48
2024/01/07 14:15:00;;;;;;;11.47;8.27;;;;;;;;;;5063069;28;20436;-49
2024/01/07 14:17:26;;;;;;;17.33;9.80;;;;;;;;;;5062731;28;20793;-49
2024/01/07 14:19:55;;;;;;;13.50;10.80;;;;;;;;;;5061120;28;20840;-49
2024/01/07 14:22:23;;;;;;;19.73;12.33;;;;;;;;;;5062706;28;20448;-49
2024/01/07 14:24:49;;;;;;;11.97;7.00;;;;;;;;;;5059308;28;20491;-49
2024/01/07 14:27:15;;;;;;;19.87;9.87;;;;;;;;;;5064490;28;20430;-49
2024/01/07 14:29:41;;;;;;;15.70;8.37;;;;;;;;;;5061020;28;20438;-50
2024/01/07 14:32:07;;;;;;;17.87;9.33;;;;;;;;;;5064737;28;20434;-49
2024/01/07 14:34:33;;;;;;;16.30;10.03;;;;;;;;;;5060390;28;20441;-49
2024/01/07 14:37:03;;;;;;;7.07;5.97;;;;;;;;;;5060993;28;20513;-49